Αρχική σελίδα
METAR-TAF:

METAR-TAF

Αεροδρόμια :

Ouargla, Αλγερία

γεωγραφικό πλάτος: 31-55N, γεωγραφικό μήκος: 005-24E, υψόμετρο: 141 μ

Παρών καιρός

Η αναφορά έγινε 39 λεπτά πριν, στις 08:00 UTC
Άνεμος 4 kt από Β
Θερμοκρασία 38°C
Υγρασία 13%
Πίεση 1012 hPa
Ορατότητα: 8000 μ
Λίγα νέφη σε ύψος 4600 πόδια

METAR: DAUU 200800Z 35004KT 8000 FEW046 38/05 Q1012

Χρόνος: 09:39 (08:39 UTC)

Πρόγνωση Καιρού

Η αναφορά έγινε 3 ώρες και 39 λεπτά πριν, στις 05:00 UTC
Η πρόγνωση ισχύει από τις 20 στις 06 UTC έως τις 20 στις 15 UTC
Άνεμος 2 kt από μεταβλητές κατευθύνσεις
Ορατότητα: 8000 μ
Προσωρινά
από 20 στις 07 UTC έως τις 20 στις 11 UTC
Άνεμος 12 kt από Ν

TAF: DAUU 200500Z 2006/2015 VRB02KT 8000 NSC TEMPO 2007/2011 18012KT

Μετεωρολογικές αναφορές και προγνώσεις για περισσότερα από 4000 αεροδρόμια (δελτία METAR και TAF).

Οι διαθέσιμοι σταθμοί απεικονίζονται στο χάρτη με κίτρινες και κόκκινες κουκκίδες.

Μετακινήστε το ποντίκι πάνω από τις κουκκίδες για να δείτε το όνομα του σταθμού.

Στη συνέχεια, κάντε κλικ για να δείτε τις μετεωρολογικές αναφορές και τις προγνώσεις καιρού.

Για να αλλάξετε το χάρτη: κάντε κλικ στα πράσινα κουμπιά με τον μαύρο σταυρό για να ζουμάρετε, στο πράσινο κουμπί με την παύλα για να αφαιρέσετε το ζουμ ή στα πράσινα βέλη για να αντιπαραβάλλετε χάρτες.


METAR-TAF: